首页
METAR-TAF:

METAR-TAF

机场 :

彭萨科拉, 佛罗里达州, 美国

纬度: 30-21-22N, 经度: 087-19-24W, 海拔: 9米

当前天气观测

该预报发布于5小时和3分钟前的23:30 UTC
风速3节,风向东南
温度 19°C
湿度 100%
气压 1020 hPa
能見度: 9.7公里
少量云层高于1300英尺
阴天层高于2000英尺
轻雾

METAR: KNPA 182330Z 13003KT 6SM BR FEW013 OVC020 19/19 A3011 RMK LAST T2 SET T01940189

时间: 22:33 (04:33 UTC)

预报

预报有效从18日的 23点(UTC)到 19日的 23点(UTC)
风速13节,风向南转南东,有时为22节阵风
能见度10公里或以上
散云层高于700英尺
阴天层高于1500英尺, 积雨云.
附近有雷暴
从 19日的 0100点(UTC)
风速10节,风向
能见度10公里或以上
阴天层高于1500英尺, 积雨云.
附近有雷暴
从 19日的 0800点(UTC)
风速10节,风向西北
能见度10公里或以上
多云层高于5000英尺
阴天层高于10000英尺
附近有阵雨

TAF: KNPA 1823/1923 15013G22KT 9999 VCTS SCT007 OVC015CB QNH3005INS FM190100 18010KT 9999 VCTS OVC015CB QNH3010INS FM190800 32010KT 9999 VCSH BKN050 OVC100 QNH3008INS T18/1900Z T09/1914Z FN00205

超过4000个机场的气象观测和天气预报(METAR&TAF报告)。

可查询的气象台以黄色和红色小点在地图上表示。

将鼠标移到小点上方,可查看气象台名称。

然后点击查看天气观测和预报。

如需切换地图:点击带黑十字的绿色按钮放大地图;点击带横线的绿色按钮缩小地图;或者点击绿色箭头查看邻近地区的地图。


METAR-TAF: